createdAt,value
2022-10-26T00:01:16.473Z,99389.88
2022-10-26T00:03:45.863Z,99385.53
2022-10-26T00:06:21.991Z,99375.69
2022-10-26T00:08:49.258Z,99384.66
2022-10-26T00:11:16.725Z,99377.97
2022-10-26T00:13:44.189Z,99372.09
2022-10-26T00:16:26.592Z,99367.06
2022-10-26T00:18:53.514Z,99378.59
2022-10-26T00:21:20.525Z,99366.81
2022-10-26T00:23:47.406Z,99361.16
2022-10-26T00:26:14.221Z,99360.94
2022-10-26T00:28:41.463Z,99347.09
2022-10-26T00:31:14.793Z,99349.81
2022-10-26T00:33:42.124Z,99345.00
2022-10-26T00:36:10.360Z,99343.72
2022-10-26T00:38:38.352Z,99330.72
2022-10-26T00:41:05.613Z,99327.97
2022-10-26T00:43:32.305Z,99328.81
2022-10-26T00:46:00.412Z,99330.28
2022-10-26T00:48:35.040Z,99324.34
2022-10-26T00:51:12.475Z,99320.59
2022-10-26T00:53:39.844Z,99318.09
2022-10-26T00:56:07.189Z,99308.03
2022-10-26T00:58:35.971Z,99313.63
2022-10-26T01:01:03.135Z,99304.63
2022-10-26T01:03:32.255Z,99297.91
2022-10-26T01:05:59.503Z,99301.66
2022-10-26T01:08:28.777Z,99292.00
2022-10-26T01:10:58.414Z,99302.31
2022-10-26T01:13:28.725Z,99314.41
2022-10-26T01:17:00.380Z,99302.91
2022-10-26T01:19:51.951Z,99299.94
2022-10-26T01:22:49.953Z,99299.09
2022-10-26T01:25:41.327Z,99303.28
2022-10-26T01:28:31.830Z,99304.56
2022-10-26T01:31:01.804Z,99304.72
2022-10-26T01:33:35.190Z,99303.63
2022-10-26T01:52:07.722Z,99293.06
2022-10-26T01:54:56.516Z,99295.34
2022-10-26T02:01:09.981Z,99284.13
2022-10-26T02:16:40.342Z,99294.66
2022-10-26T02:32:47.440Z,99272.03
2022-10-26T02:36:27.933Z,99261.97
2022-10-26T02:39:40.724Z,99269.06
2022-10-26T02:43:17.433Z,99262.56
2022-10-26T03:06:59.349Z,99264.00
2022-10-26T03:14:25.184Z,99265.22
2022-10-26T03:17:11.543Z,99258.47
2022-10-26T03:34:10.194Z,99238.09
2022-10-26T03:37:14.558Z,99246.03
2022-10-26T03:40:57.607Z,99243.69
2022-10-26T03:59:47.551Z,99257.00
2022-10-26T04:10:29.285Z,99254.88
2022-10-26T04:23:44.893Z,99259.03
2022-10-26T04:35:03.254Z,99293.50
2022-10-26T04:49:59.777Z,99279.00
2022-10-26T05:03:35.444Z,99283.69
2022-10-26T05:26:56.432Z,99323.50
2022-10-26T05:33:48.233Z,99355.72
2022-10-26T05:46:50.994Z,99335.59
2022-10-26T06:06:32.952Z,99306.69
2022-10-26T06:09:00.097Z,99321.94
2022-10-26T06:11:27.312Z,99311.91
2022-10-26T06:13:54.908Z,99302.28
2022-10-26T06:16:42.008Z,99310.00
2022-10-26T06:19:42.128Z,99309.03
2022-10-26T06:22:33.019Z,99309.84
2022-10-26T06:25:27.384Z,99307.00
2022-10-26T06:31:18.745Z,99325.28
2022-10-26T06:33:46.002Z,99341.41
2022-10-26T06:36:25.390Z,99331.94
2022-10-26T06:39:00.209Z,99330.88
2022-10-26T06:41:27.702Z,99336.25
2022-10-26T06:43:54.931Z,99336.47
2022-10-26T06:46:28.103Z,99354.03
2022-10-26T06:49:18.919Z,99342.91
2022-10-26T06:51:59.174Z,99347.94
2022-10-26T06:54:44.096Z,99352.69
2022-10-26T06:57:13.497Z,99338.84
2022-10-26T06:59:47.919Z,99339.28
2022-10-26T07:02:15.442Z,99328.78
2022-10-26T07:04:43.719Z,99326.66
2022-10-26T07:07:18.744Z,99314.69
2022-10-26T07:09:45.580Z,99303.19
2022-10-26T07:12:12.509Z,99301.69
2022-10-26T07:14:39.448Z,99301.69
2022-10-26T07:17:06.933Z,99299.56
2022-10-26T07:19:33.731Z,99305.59
2022-10-26T07:22:01.410Z,99306.22
2022-10-26T07:24:31.428Z,99310.00
2022-10-26T07:26:59.014Z,99317.09
2022-10-26T07:29:27.447Z,99317.09
2022-10-26T07:34:41.514Z,99335.03
2022-10-26T07:37:08.529Z,99323.31
2022-10-26T07:39:35.307Z,99331.03
2022-10-26T07:42:02.149Z,99338.75
2022-10-26T07:44:29.106Z,99347.31
2022-10-26T07:46:55.868Z,99366.16
2022-10-26T07:49:26.091Z,99373.88
2022-10-26T07:51:54.773Z,99385.38
2022-10-26T07:54:21.577Z,99377.22
2022-10-26T07:56:51.748Z,99383.88
2022-10-26T07:59:18.635Z,99375.38
2022-10-26T08:01:45.555Z,99390.47
2022-10-26T08:04:12.473Z,99385.59
2022-10-26T08:06:39.315Z,99393.56
2022-10-26T08:09:06.239Z,99397.56
2022-10-26T08:11:33.292Z,99402.19
2022-10-26T08:14:00.118Z,99405.28
2022-10-26T08:16:27.068Z,99410.97
2022-10-26T08:18:53.887Z,99415.72
2022-10-26T08:21:30.390Z,99420.34
2022-10-26T08:24:03.360Z,99423.28
2022-10-26T08:26:30.809Z,99430.88
2022-10-26T08:28:57.668Z,99430.75
2022-10-26T08:31:24.749Z,99434.53
2022-10-26T08:33:51.507Z,99437.03
2022-10-26T08:36:24.555Z,99438.22
2022-10-26T08:38:52.631Z,99434.69
2022-10-26T08:41:36.408Z,99444.13
2022-10-26T08:44:30.531Z,99441.19
2022-10-26T08:47:08.461Z,99444.28
2022-10-26T08:49:44.475Z,99446.09
2022-10-26T08:52:19.221Z,99454.41
2022-10-26T08:54:53.327Z,99462.25
2022-10-26T08:57:38.460Z,99475.56
2022-10-26T09:00:19.244Z,99478.59
2022-10-26T09:02:51.271Z,99487.53
2022-10-26T09:05:23.860Z,99484.72
2022-10-26T09:08:04.487Z,99481.53
2022-10-26T09:10:39.715Z,99471.31
2022-10-26T09:13:56.385Z,99472.19
2022-10-26T09:16:54.312Z,99488.06
2022-10-26T09:19:24.436Z,99491.06
2022-10-26T09:22:03.358Z,99500.31
2022-10-26T09:24:39.196Z,99506.59
2022-10-26T09:27:29.080Z,99520.38
2022-10-26T09:30:18.615Z,99522.88
2022-10-26T09:32:53.605Z,99532.50
2022-10-26T09:35:50.091Z,99536.00
2022-10-26T09:38:49.224Z,99541.41
2022-10-26T09:41:39.145Z,99544.56
2022-10-26T09:44:20.464Z,99549.22
2022-10-26T09:47:05.212Z,99566.41
2022-10-26T09:49:42.663Z,99557.78
2022-10-26T09:54:36.517Z,99567.31
2022-10-26T09:57:05.041Z,99573.97
2022-10-26T09:59:38.724Z,99579.22
2022-10-26T10:02:37.703Z,99582.44
2022-10-26T10:05:50.693Z,99594.72
2022-10-26T10:08:22.293Z,99595.47
2022-10-26T10:11:08.367Z,99586.09
2022-10-26T10:13:44.150Z,99598.63
2022-10-26T10:16:20.872Z,99597.09
2022-10-26T10:19:00.135Z,99599.97
2022-10-26T10:21:39.183Z,99608.91
2022-10-26T10:24:25.559Z,99614.25
2022-10-26T10:27:17.527Z,99616.75
2022-10-26T10:29:47.183Z,99620.47
2022-10-26T10:32:23.360Z,99633.44
2022-10-26T10:34:58.461Z,99630.00
2022-10-26T10:37:30.663Z,99629.63
2022-10-26T10:40:24.474Z,99645.69
2022-10-26T10:42:55.417Z,99647.81
2022-10-26T10:45:23.085Z,99650.56
2022-10-26T10:48:03.238Z,99646.16
2022-10-26T10:50:31.750Z,99642.34
2022-10-26T10:53:35.720Z,99644.47
2022-10-26T10:56:20.644Z,99639.84
2022-10-26T10:59:11.397Z,99641.28
2022-10-26T11:01:56.915Z,99648.41
2022-10-26T11:04:35.630Z,99651.63
2022-10-26T11:07:06.480Z,99655.09
2022-10-26T11:09:38.148Z,99658.44
2022-10-26T11:12:15.786Z,99671.16
2022-10-26T11:14:53.819Z,99658.31
2022-10-26T11:17:32.032Z,99670.00
2022-10-26T11:20:16.188Z,99678.31
2022-10-26T11:23:02.213Z,99673.56
2022-10-26T11:25:44.726Z,99683.44
2022-10-26T11:28:34.180Z,99692.38
2022-10-26T11:31:11.308Z,99696.91
2022-10-26T11:33:47.593Z,99695.59
2022-10-26T11:36:22.055Z,99709.41
2022-10-26T11:39:14.416Z,99700.59
2022-10-26T11:41:51.628Z,99722.78
2022-10-26T11:44:40.678Z,99714.19
2022-10-26T11:47:22.667Z,99714.09
2022-10-26T11:50:12.184Z,99727.19
2022-10-26T11:53:10.950Z,99739.63
2022-10-26T11:55:39.980Z,99749.53
2022-10-26T11:58:11.695Z,99739.88
2022-10-26T12:01:14.337Z,99746.44
2022-10-26T12:03:50.868Z,99754.38
2022-10-26T12:06:26.088Z,99740.84
2022-10-26T12:09:18.155Z,99755.50
2022-10-26T12:11:58.234Z,99757.06
2022-10-26T12:14:37.981Z,99753.00
2022-10-26T12:17:14.912Z,99769.69
2022-10-26T12:19:54.561Z,99764.81
2022-10-26T12:22:30.956Z,99770.28
2022-10-26T12:25:16.062Z,99775.25
2022-10-26T12:27:42.849Z,99778.59
2022-10-26T12:30:19.008Z,99779.69
2022-10-26T12:32:45.733Z,99776.34
2022-10-26T12:35:44.982Z,99787.31
2022-10-26T12:38:37.920Z,99793.97
2022-10-26T12:41:18.713Z,99800.63
2022-10-26T12:43:46.379Z,99798.50
2022-10-26T12:46:13.266Z,99794.69
2022-10-26T12:48:44.615Z,99807.31
2022-10-26T12:51:24.939Z,99803.03
2022-10-26T12:53:57.986Z,99807.19
2022-10-26T12:56:55.550Z,99821.13
2022-10-26T12:59:33.947Z,99821.34
2022-10-26T13:02:31.820Z,99816.13
2022-10-26T13:05:34.616Z,99815.06
2022-10-26T13:08:06.711Z,99823.28
2022-10-26T13:10:35.610Z,99821.84
2022-10-26T13:13:06.593Z,99830.28
2022-10-26T13:15:41.327Z,99832.31
2022-10-26T13:18:18.033Z,99826.38
2022-10-26T13:21:15.142Z,99836.13
2022-10-26T13:23:46.791Z,99840.06
2022-10-26T13:26:17.876Z,99844.34
2022-10-26T13:29:01.122Z,99844.13
2022-10-26T13:31:31.528Z,99848.06
2022-10-26T13:37:13.307Z,99852.13
2022-10-26T13:39:44.313Z,99860.69
2022-10-26T13:42:20.153Z,99854.84
2022-10-26T13:44:59.669Z,99854.03
2022-10-26T13:47:49.274Z,99859.59
2022-10-26T13:50:21.307Z,99862.94
2022-10-26T13:52:54.873Z,99852.13
2022-10-26T13:55:32.870Z,99861.38
2022-10-26T13:58:18.006Z,99864.25
2022-10-26T14:01:10.553Z,99858.28
2022-10-26T14:03:38.418Z,99862.34
2022-10-26T14:06:18.501Z,99867.22
2022-10-26T14:08:49.540Z,99870.66
2022-10-26T14:11:22.286Z,99861.53
2022-10-26T14:13:51.235Z,99873.06
2022-10-26T14:16:20.607Z,99871.16
2022-10-26T14:18:49.380Z,99875.22
2022-10-26T14:21:20.731Z,99885.69
2022-10-26T14:23:58.853Z,99888.41
2022-10-26T14:26:42.225Z,99883.06
2022-10-26T14:29:20.986Z,99891.28
2022-10-26T14:31:49.342Z,99894.88
2022-10-26T14:34:17.312Z,99901.66
2022-10-26T14:37:02.178Z,99902.13
2022-10-26T14:39:46.408Z,99910.25
2022-10-26T14:42:33.641Z,99908.41
2022-10-26T14:45:02.504Z,99911.88
2022-10-26T14:47:32.244Z,99909.59
2022-10-26T14:52:36.213Z,99917.44
2022-10-26T14:55:14.990Z,99924.47
2022-10-26T14:57:45.159Z,99916.13
2022-10-26T15:00:23.692Z,99918.50
2022-10-26T15:02:56.563Z,99917.53
2022-10-26T15:05:35.708Z,99919.28
2022-10-26T15:08:03.476Z,99921.19
2022-10-26T15:10:36.241Z,99930.69
2022-10-26T15:13:25.486Z,99930.25
2022-10-26T15:15:57.496Z,99937.28
2022-10-26T15:18:30.577Z,99927.41
2022-10-26T15:20:57.963Z,99941.09
2022-10-26T15:23:28.228Z,99942.41
2022-10-26T15:25:59.093Z,99930.31
2022-10-26T15:28:39.556Z,99927.44
2022-10-26T15:31:10.811Z,99945.25
2022-10-26T15:34:03.232Z,99938.63
2022-10-26T15:36:32.012Z,99934.09
2022-10-26T15:39:00.050Z,99937.13
2022-10-26T15:41:31.046Z,99937.66
2022-10-26T15:44:01.730Z,99948.06
2022-10-26T15:46:37.236Z,99936.13
2022-10-26T15:49:08.056Z,99953.44
2022-10-26T15:51:35.485Z,99958.53
2022-10-26T15:54:04.672Z,99957.78
2022-10-26T15:56:32.440Z,99960.56
2022-10-26T15:58:59.487Z,99960.41
2022-10-26T16:01:29.637Z,99964.66
2022-10-26T16:03:56.496Z,99966.81
2022-10-26T16:06:34.022Z,99968.50
2022-10-26T16:09:04.115Z,99967.69
2022-10-26T16:11:31.054Z,99970.25
2022-10-26T16:14:01.071Z,99974.88
2022-10-26T16:16:30.550Z,99974.47
2022-10-26T16:19:18.407Z,99984.16
2022-10-26T16:21:44.276Z,99991.56
2022-10-26T16:24:12.056Z,99988.66
2022-10-26T16:26:38.802Z,99991.06
2022-10-26T16:29:05.548Z,99999.69
2022-10-26T16:31:32.313Z,99999.97
2022-10-26T16:34:01.787Z,100002.09
2022-10-26T16:36:32.926Z,100001.91
2022-10-26T16:39:00.039Z,100007.44
2022-10-26T16:41:26.863Z,100004.97
2022-10-26T16:43:53.640Z,100013.38
2022-10-26T16:46:21.728Z,100019.28
2022-10-26T16:48:50.423Z,100027.06
2022-10-26T16:51:22.612Z,100021.22
2022-10-26T16:53:54.115Z,100020.38
2022-10-26T16:56:25.506Z,100033.41
2022-10-26T16:58:52.952Z,100039.50
2022-10-26T17:01:21.478Z,100040.97
2022-10-26T17:03:51.741Z,100041.03
2022-10-26T17:06:19.232Z,100051.53
2022-10-26T17:08:46.123Z,100056.94
2022-10-26T17:11:19.744Z,100057.19
2022-10-26T17:13:47.761Z,100061.59
2022-10-26T17:16:21.259Z,100072.91
2022-10-26T17:18:48.910Z,100067.06
2022-10-26T17:21:20.346Z,100075.44
2022-10-26T17:23:47.256Z,100075.88
2022-10-26T17:26:15.241Z,100077.94
2022-10-26T17:28:42.181Z,100085.50
2022-10-26T17:31:10.482Z,100089.09
2022-10-26T17:33:39.559Z,100092.22
2022-10-26T17:36:07.987Z,100100.59
2022-10-26T17:38:38.293Z,100110.28
2022-10-26T17:41:12.015Z,100111.72
2022-10-26T17:43:40.806Z,100123.69
2022-10-26T17:46:14.418Z,100131.66
2022-10-26T17:48:41.492Z,100131.47
2022-10-26T17:51:16.381Z,100128.28
2022-10-26T17:53:51.288Z,100140.88
2022-10-26T17:56:32.147Z,100153.03
2022-10-26T17:59:03.983Z,100146.75
2022-10-26T18:01:32.189Z,100159.16
2022-10-26T18:04:00.568Z,100159.34
2022-10-26T18:06:27.446Z,100158.69
2022-10-26T18:08:57.854Z,100175.47
2022-10-26T18:11:27.212Z,100180.72
2022-10-26T18:13:58.172Z,100187.84
2022-10-26T18:16:27.734Z,100191.84
2022-10-26T18:19:01.658Z,100193.13
2022-10-26T18:21:32.509Z,100205.47
2022-10-26T18:23:59.915Z,100202.53
2022-10-26T18:26:29.434Z,100198.56
2022-10-26T18:29:00.862Z,100206.50
2022-10-26T18:31:30.546Z,100210.06
2022-10-26T18:34:03.643Z,100217.81
2022-10-26T18:36:31.761Z,100215.06
2022-10-26T18:38:58.719Z,100218.19
2022-10-26T18:41:26.624Z,100216.09
2022-10-26T18:43:59.076Z,100216.72
2022-10-26T18:46:29.156Z,100228.41
2022-10-26T18:48:58.247Z,100238.88
2022-10-26T18:51:30.685Z,100241.19
2022-10-26T18:53:58.631Z,100243.69
2022-10-26T18:56:26.398Z,100242.81
2022-10-26T18:58:58.550Z,100248.66
2022-10-26T19:01:39.610Z,100253.03
2022-10-26T19:04:09.295Z,100261.41
2022-10-26T19:06:45.220Z,100268.28
2022-10-26T19:09:12.644Z,100264.28
2022-10-26T19:11:39.668Z,100271.81
2022-10-26T19:14:07.820Z,100276.81
2022-10-26T19:16:50.862Z,100269.91
2022-10-26T19:19:19.767Z,100278.44
2022-10-26T19:21:49.425Z,100283.91
2022-10-26T19:24:20.223Z,100284.75
2022-10-26T19:26:49.102Z,100286.03
2022-10-26T19:29:17.814Z,100287.31
2022-10-26T19:31:46.228Z,100284.59
2022-10-26T19:34:15.848Z,100283.34
2022-10-26T19:36:45.243Z,100293.22
2022-10-26T19:39:14.487Z,100286.06
2022-10-26T19:41:41.417Z,100286.94
2022-10-26T19:44:11.554Z,100296.56
2022-10-26T19:46:39.865Z,100285.28
2022-10-26T19:49:06.814Z,100288.84
2022-10-26T19:51:33.671Z,100288.28
2022-10-26T19:54:03.841Z,100285.34
2022-10-26T19:56:32.652Z,100294.59
2022-10-26T19:58:59.882Z,100298.34
2022-10-26T20:01:26.899Z,100294.81
2022-10-26T20:03:53.830Z,100291.25
2022-10-26T20:06:20.812Z,100293.34
2022-10-26T20:08:49.388Z,100295.81
2022-10-26T20:11:18.591Z,100293.28
2022-10-26T20:13:47.325Z,100296.63
2022-10-26T20:16:16.182Z,100300.81
2022-10-26T20:18:47.519Z,100308.34
2022-10-26T20:21:17.379Z,100312.50
2022-10-26T20:23:45.171Z,100315.00
2022-10-26T20:26:19.058Z,100318.72
2022-10-26T20:28:48.251Z,100325.00
2022-10-26T20:31:15.443Z,100323.97
2022-10-26T20:33:42.292Z,100324.59
2022-10-26T20:36:09.151Z,100327.91
2022-10-26T20:38:36.739Z,100331.88
2022-10-26T20:41:07.708Z,100323.06
2022-10-26T20:43:40.199Z,100328.03
2022-10-26T20:46:33.526Z,100331.97
2022-10-26T20:49:00.713Z,100339.13
2022-10-26T20:52:26.014Z,100337.56
2022-10-26T20:55:04.685Z,100340.28
2022-10-26T20:57:33.261Z,100333.81
2022-10-26T21:00:09.166Z,100338.63
2022-10-26T21:02:36.044Z,100346.16
2022-10-26T21:05:03.556Z,100344.44
2022-10-26T21:07:30.371Z,100351.34
2022-10-26T21:09:57.133Z,100348.63
2022-10-26T21:12:24.173Z,100356.13
2022-10-26T21:14:50.969Z,100359.03
2022-10-26T21:17:17.706Z,100358.41
2022-10-26T21:19:44.782Z,100361.97
2022-10-26T21:22:11.629Z,100362.34
2022-10-26T21:24:38.392Z,100372.38
2022-10-26T21:27:05.114Z,100377.00
2022-10-26T21:29:31.874Z,100382.81
2022-10-26T21:31:58.645Z,100372.97
2022-10-26T21:34:25.503Z,100384.88
2022-10-26T21:36:52.307Z,100374.41
2022-10-26T21:39:19.256Z,100390.06
2022-10-26T21:41:45.995Z,100391.13
2022-10-26T21:44:24.725Z,100384.84
2022-10-26T21:46:59.482Z,100382.31
2022-10-26T21:49:26.235Z,100385.69
2022-10-26T21:51:53.060Z,100386.06
2022-10-26T21:54:19.832Z,100373.88
2022-10-26T21:56:46.567Z,100370.97
2022-10-26T21:59:13.299Z,100384.56
2022-10-26T22:01:40.398Z,100386.00
2022-10-26T22:04:07.530Z,100390.00
2022-10-26T22:06:34.385Z,100387.66
2022-10-26T22:09:01.121Z,100379.50
2022-10-26T22:11:27.963Z,100376.16
2022-10-26T22:13:54.733Z,100379.28
2022-10-26T22:16:28.239Z,100382.19
2022-10-26T22:18:58.226Z,100392.88
2022-10-26T22:21:27.585Z,100384.91
2022-10-26T22:23:55.247Z,100385.28
2022-10-26T22:26:24.707Z,100388.00
2022-10-26T22:28:55.403Z,100398.03
2022-10-26T22:34:18.204Z,100396.47
2022-10-26T22:36:45.127Z,100396.94
2022-10-26T22:39:11.872Z,100406.75
2022-10-26T22:41:38.711Z,100413.91
2022-10-26T22:44:05.695Z,100414.25
2022-10-26T22:46:32.698Z,100409.47
2022-10-26T22:49:01.999Z,100412.19
2022-10-26T22:51:34.494Z,100412.00
2022-10-26T22:54:03.705Z,100402.19
2022-10-26T22:56:32.856Z,100402.19
2022-10-26T22:58:59.843Z,100407.63
2022-10-26T23:01:33.661Z,100402.38
2022-10-26T23:04:00.771Z,100410.34
2022-10-26T23:06:31.814Z,100407.63
2022-10-26T23:08:58.945Z,100422.25
2022-10-26T23:11:28.733Z,100415.97
2022-10-26T23:13:58.566Z,100418.03
2022-10-26T23:16:26.166Z,100416.53
2022-10-26T23:18:56.184Z,100412.13
2022-10-26T23:24:11.956Z,100424.25
2022-10-26T23:26:38.691Z,100430.88
2022-10-26T23:29:06.250Z,100435.88
2022-10-26T23:31:32.976Z,100439.63
2022-10-26T23:33:59.745Z,100429.78
2022-10-26T23:36:26.743Z,100440.66
2022-10-26T23:38:53.650Z,100442.06
2022-10-26T23:41:20.400Z,100451.25
2022-10-26T23:43:47.151Z,100446.84
2022-10-26T23:46:14.052Z,100449.56
2022-10-26T23:48:41.212Z,100440.78
2022-10-26T23:51:07.986Z,100434.50
2022-10-26T23:53:35.129Z,100443.03
2022-10-26T23:56:02.132Z,100437.94
2022-10-26T23:58:29.234Z,100438.16
